Questo sito fa uso di cookie per migliorare l’esperienza di navigazione degli utenti e per raccogliere informazioni sull’utilizzo del sito stesso. Proseguendo nella navigazione si accetta l’uso dei cookie; in caso contrario è possibile abbandonare il sito.

[source: ADDS]
METAR
LIPA 261755Z 18008KT CAVOK 23/15 Q1016 RMK SKC VIS MIN 9999 WIND THR05 20009KT WIND THR23 18008KT A3002 BLU =
LIPB 261750Z 17011KT CAVOK 25/10 Q1014 =
LIPC 261755Z 14005KT CAVOK 21/10 Q1017 RMK SKC VIS MIN 9999 WIND THR11 /////KT WIND THR29 13005KT BLU =
LIPE 261820Z 11008KT CAVOK 21/10 Q1017 =
LIPF 261755Z 17002KT CAVOK 24/14 Q1017 RMK SKC VIS MIN 9999 =
LIPH 261820Z 16003KT 130V210 CAVOK 23/12 Q1016 =
LIPK 261550Z 09006KT CAVOK 23/07 Q1017 =
LIPL 261755Z /////KT CAVOK 26/10 Q1017 RMK SKC VIS MIN 9999 WIND THR31 14004KT BLU =
LIPO 261750Z 13005KT CAVOK 25/10 Q1016 =
LIPQ 261820Z 29003KT CAVOK 23/12 Q1016 =
LIPR 261815Z 08001KT CAVOK 21/10 Q1017 =
LIPS 261755Z 19005KT CAVOK 23/15 Q1016 RMK SKC VIS MIN 9999 WIND THR26 17003KT WIND THR08 17004KT BLU =
LIPX 261820Z 14004KT 100V160 CAVOK 24/12 Q1017 =
LIPY 261750Z 34005KT 310V010 CAVOK 21/08 Q1017 =
LIPZ 261820Z 15006KT CAVOK 22/14 Q1016 NOSIG =
LIVC 261755Z 01009KT CAVOK 08/04 Q1024 RMK SKC MON LIB VAL NIL VIS MIN 9999 =
LIVD 261755Z /////KT CAVOK 21/04 Q1019 RMK SKC VIS MIN 9999 =
LIVE 261755Z 35007KT CAVOK 19/M00 Q1019 RMK SKC VIS MIN 9999 =
LIVF 261755Z 07003KT CAVOK 18/03 Q1018 RMK SKC MON LIB VAL NIL VIS MIN 9999 =
LIVO 261755Z 07003KT 9999 FEW050 21/09 Q1017 RMK FEW VIS MIN 9999 =
LIVP 261755Z 36005KT CAVOK 13/01 Q1022 RMK SKC MON LIB VAL NIL VIS MIN 9999 =
LIVR 261755Z 07010KT CAVOK 10/08 Q1022 RMK SKC MON LIB VIS MIN 9999 =
LIVT 261755Z 15001KT CAVOK 23/17 Q1016 RMK SKC QUK 0 QUL 0 VIS MAR 20 KM VIS MIN 9999 =
LIMC 261820Z 22003KT 140V280 CAVOK 25/11 Q1017 NOSIG =
LIME 261820Z 19003KT 140V210 CAVOK 24/11 Q1017 NOSIG =
LIMF 261820Z 06004KT CAVOK 24/14 Q1016 =
LIMG 261750Z VRB03KT CAVOK 23/10 Q1016 =
LIMH 261755Z /////KT 9999 FEW020 05/M03 Q1031 RMK FEW MON CLD SCT VAL NIL VIS MIN 9999 =
LIMJ 261820Z VRB02KT CAVOK 22/12 Q1016 =
LIMK 261755Z 14004KT CAVOK 22/13 Q1018 RMK SKC VAL NIL VIS MIN 9999 =
LIML 261820Z 10005KT CAVOK 25/10 Q1016 NOSIG =
LIMN 261755Z VRB01KT CAVOK 26/14 Q1016 RMK SKC VIS MIN 9999 BLU =
LIMS 261755Z 10006KT CAVOK 26/09 Q1015 RMK SKC VIS MIN 9999 WIND THR30 08005KT BLU =
LIMT 261555Z 01007KT CAVOK 17/06 Q1019 RMK SKC MON LIB VAL NIL VIS MIN 9999 =
LIMU 261755Z 22009KT CAVOK 22/08 Q1017 RMK SCT SCT060 QUK 2 QUL 1 SE VIS MAR 40 KM VIS MIN 9999 =
LIMV 261755Z /////KT CAVOK 20/06 Q1018 RMK SKC MON LIB VAL NIL VIS MIN 9999 =
LIMY 261755Z 07004KT CAVOK 25/17 Q1017 RMK SKC VAL NIL VIS MIN 9999 =
TAF
TAF LIPA 261700Z 2618/2703 19010KT 9999 FEW050 =
TAF LIPB 261700Z 2618/2718 VRB06KT 9999 FEW050 =
TAF LIPC 261700Z 2618/2703 13008KT 9999 FEW040 BECMG 2620/2622 20006KT =
TAF LIPE 261700Z 2618/2718 VRB06KT 9999 FEW050 BECMG 2710/2712 09010KT BECMG 2715/2718 VRB06KT =
TAF LIPH 261700Z 2618/2718 VRB06KT 9999 FEW050 =
TAF LIPL 261700Z 2618/2703 14005KT CAVOK PROB30 TEMPO 2618/2621 16015KT =
TAF LIPO 261700Z 2618/2718 11005KT CAVOK =
TAF LIPQ 261700Z 2618/2718 VRB06KT 9999 FEW050 =
TAF LIPR 261700Z 2618/2703 08008KT 9999 FEW040 BECMG 2620/2622 20006KT =
TAF LIPS 261700Z 2618/2703 VRB05KT CAVOK BECMG 2622/2624 02005KT 9999 SCT070 =
TAF LIPX 261700Z 2618/2703 VRB05KT CAVOK =
TAF LIPY 261700Z 2618/2718 VRB06KT 9999 FEW030 BECMG 2708/2710 02010KT BECMG 2716/2718 VRB06KT =
TAF LIPZ 261700Z 2618/2724 VRB06KT 9999 FEW050 BECMG 2708/2710 16010KT BECMG 2716/2719 VRB06KT =
TAF LIMC 261700Z 2618/2724 VRB05KT CAVOK =
TAF LIME 261700Z 2618/2718 VRB05KT CAVOK =
TAF LIMF 261700Z 2618/2718 05005KT CAVOK =
TAF LIMJ 261700Z 2618/2718 VRB05KT CAVOK =
TAF LIML 261700Z 2618/2718 09005KT CAVOK =
TAF LIMN 261700Z 2618/2703 14006KT CAVOK =
SR / SS: 03:31 / 18:48 UTC (Effemeridi Aeroporto di Padova - LIPU 2017-05-26)

Immagini e previsioni meteo non aeronautiche

 

 

Immagini dal Radar Meteorologico del sito ARPAV. Orario UTC.

 

Immagine dal sito Meteo Sat Online

 

Legenda codici ICAO del nord Italia

 

In ordine di codice   In ordine di località
LIMC
Milano / Malpensa LIMG Albenga
LIME Bergamo / Orio Al Serio LIPA Aviano
LIMF Torino / Caselle LIME Bergamo / Orio Al Serio
LIMG Albenga LIPE Bologna / Borgo Panigale
LIMH Pian Rosa LIPB Bolzano
LIMJ Genova / Sestri LIPL Brescia / Ghedi
LIMK Torino / Bric Della Croce LIPO Brescia / Montichiari
LIML Milano / Linate LIMU Capo Mele
LIMN Novara / Cameri LIPC Cervia
LIMO Monte Bisbino LIVD Dobbiaco
LIMS Piacenza LIPP Dova Area Control Center
LIMT Passo Della Cisa LIPY Falconara
LIMU Capo Mele LIPF Ferrara
LIMV Passo Dei Giovi LIPK Forli
LIMY Monte Malanotte LIVF Frontone
LIPA Aviano LIMJ Genova / Sestri
LIPB Bolzano LIML Milano / Linate
LIPC Cervia
LIMC
Milano / Malpensa
LIPD Udine / Campoformido LIMO Monte Bisbino
LIPE Bologna / Borgo Panigale LIVC Monte Cimone
LIPF Ferrara LIMY Monte Malanotte
LIPH Treviso / S. Angelo LIMN Novara / Cameri
LIPI Udine / Rivolto LIPU Padova
LIPK Forli LIVP Paganella
LIPL Brescia / Ghedi LIMV Passo Dei Giovi
LIPO Brescia / Montichiari LIMT Passo Della Cisa
LIPP Dova Area Control Center LIVR Passo Rolle
LIPQ Ronchi Dei Legionari LIMS Piacenza
LIPR Rimini LIMH Pian Rosa
LIPS Treviso / Istrana LIVM Punta Marina
LIPT Vicenza LIVE Resia Pass
LIPU Padova LIPR Rimini
LIPX Verona / Villafranca LIPQ Ronchi Dei Legionari
LIPY Falconara LIVO Tarvisio
LIPZ Venezia / Tessera LIMK Torino / Bric Della Croce
LIVC Monte Cimone LIMF Torino / Caselle
LIVD Dobbiaco LIPS Treviso / Istrana
LIVE Resia Pass LIPH Treviso / S. Angelo
LIVF Frontone LIVT
Trieste
LIVM Punta Marina LIPD Udine / Campoformido
LIVO Tarvisio LIPI Udine / Rivolto
LIVP Paganella LIPZ Venezia / Tessera
LIVR Passo Rolle LIPX Verona / Villafranca
LIVT Trieste LIPT Vicenza

 

 

 

 

 

 

 

 

 

 

 

 

 

 

 

 

 

 

 

 

 

 

 

 

 

 

 

 

 

 

 

 

 

 

 

 

 

 

 

 

 

 

 

 

 

 

 

 

 

 

 

 

 

 

 

 

 

 

 

 

L'Aeroclub di Padova si limita a riportare informazioni fornite da terze parti, e non ha quindi alcuna responsabilità sul contenuto. Per la pianificazione dei propri voli si raccomanda l'utilizzo delle fonti ufficiali.

Copyright 2011. Free joomla templates | © Aeroclub Padova - Scuola di Volo, Ditta di manutenzione, CAMO Via Sorio, 89 - 35141 Padova Tel. 049 8718599 Fax 049 8717699 info@aeroclubpadova.it